Time;durP1;ratioP1;P1;durP2;ratioP2;P2;SDS_P1;SDS_P2;PMS_P1;PMS_P2;Temp;Humidity;BMP_temperature;BMP_pressure;BME280_temperature;BME280_humidity;BME280_pressure;Samples;Min_cycle;Max_cycle;Signal;HPM_P1;HPM_P2
2023/06/25 00:00:08;;;;;;;13.13;10.90;;;19.80;99.90;;;;;;5052454;28;20196;-61
2023/06/25 00:02:34;;;;;;;12.27;10.80;;;19.80;99.90;;;;;;5055995;28;20271;-62
2023/06/25 00:04:59;;;;;;;17.23;12.63;;;19.70;99.90;;;;;;5062530;28;20744;-60
2023/06/25 00:07:25;;;;;;;13.60;12.30;;;19.70;99.90;;;;;;5063174;28;20227;-59
2023/06/25 00:09:53;;;;;;;17.23;15.53;;;19.60;99.90;;;;;;5047756;28;20253;-59
2023/06/25 00:12:18;;;;;;;16.87;15.17;;;19.50;99.90;;;;;;5046754;28;20190;-59
2023/06/25 00:14:44;;;;;;;17.50;14.73;;;19.50;99.90;;;;;;5046699;28;20209;-59
2023/06/25 00:17:09;;;;;;;16.30;14.57;;;19.50;99.90;;;;;;5043953;28;20213;-60
2023/06/25 00:19:35;;;;;;;17.67;15.30;;;19.50;99.90;;;;;;5044778;28;20339;-59
2023/06/25 00:22:00;;;;;;;18.87;16.97;;;19.40;99.90;;;;;;5048697;28;20238;-59
2023/06/25 00:24:26;;;;;;;19.33;16.53;;;19.30;99.90;;;;;;5056235;28;20205;-61
2023/06/25 00:26:51;;;;;;;16.70;15.00;;;19.30;99.90;;;;;;5058866;28;20204;-61
2023/06/25 00:29:17;;;;;;;19.60;15.27;;;19.30;99.90;;;;;;5049796;28;20254;-61
2023/06/25 00:31:42;;;;;;;17.37;14.90;;;19.30;99.90;;;;;;5056301;28;20209;-61
2023/06/25 00:34:08;;;;;;;18.23;16.33;;;19.30;99.90;;;;;;5056414;28;20280;-61
2023/06/25 00:36:36;;;;;;;20.40;15.50;;;19.30;99.90;;;;;;5056483;28;20210;-61
2023/06/25 00:39:03;;;;;;;17.27;15.37;;;19.40;99.90;;;;;;5056092;28;20575;-61
2023/06/25 00:41:28;;;;;;;16.37;14.67;;;19.40;99.90;;;;;;5054954;28;20215;-62
2023/06/25 00:43:54;;;;;;;15.93;12.63;;;19.40;99.90;;;;;;5054686;28;20204;-62
2023/06/25 00:46:23;;;;;;;15.00;13.40;;;19.50;99.90;;;;;;5056345;28;20297;-61
2023/06/25 00:48:49;;;;;;;17.13;12.67;;;19.50;99.90;;;;;;5056327;28;20201;-62
2023/06/25 00:51:16;;;;;;;14.27;11.97;;;19.50;99.90;;;;;;5054367;28;20206;-71
2023/06/25 00:53:41;;;;;;;13.10;10.50;;;19.50;99.90;;;;;;5054587;28;20212;-64
2023/06/25 00:56:07;;;;;;;12.10;10.00;;;19.50;99.90;;;;;;5053983;28;20210;-62
2023/06/25 00:58:37;;;;;;;19.70;12.17;;;19.50;99.90;;;;;;5055397;28;20658;-60
2023/06/25 01:01:07;;;;;;;14.40;12.13;;;19.50;99.90;;;;;;5053598;28;20232;-61
2023/06/25 01:03:40;;;;;;;14.23;10.63;;;19.50;99.90;;;;;;5055845;28;20682;-62
2023/06/25 01:06:15;;;;;;;16.50;12.33;;;19.50;99.90;;;;;;5054633;28;20212;-62
2023/06/25 01:08:49;;;;;;;17.00;11.40;;;19.50;99.90;;;;;;5059869;28;20199;-62
2023/06/25 01:11:14;;;;;;;13.40;11.70;;;19.50;99.90;;;;;;5059968;28;20225;-62
2023/06/25 01:13:39;;;;;;;16.50;13.50;;;19.60;99.90;;;;;;5058752;28;20541;-61
2023/06/25 01:16:05;;;;;;;14.57;11.47;;;19.60;99.90;;;;;;5059576;28;20304;-61
2023/06/25 01:18:31;;;;;;;14.33;12.73;;;19.60;99.90;;;;;;5059695;28;20198;-61
2023/06/25 01:20:58;;;;;;;13.77;12.37;;;19.60;99.90;;;;;;5058355;28;20682;-61
2023/06/25 01:23:24;;;;;;;15.47;12.00;;;19.60;99.90;;;;;;5059086;28;20198;-61
2023/06/25 01:25:49;;;;;;;13.07;11.63;;;19.60;99.90;;;;;;5059209;28;20262;-61
2023/06/25 01:28:20;;;;;;;15.57;12.17;;;19.70;99.90;;;;;;5058447;28;20244;-61
2023/06/25 01:30:47;;;;;;;13.13;11.73;;;19.80;99.90;;;;;;5059149;28;20202;-61
2023/06/25 01:33:15;;;;;;;13.60;11.37;;;19.80;99.90;;;;;;5059015;28;20232;-61
2023/06/25 01:35:40;;;;;;;15.07;12.10;;;19.80;99.90;;;;;;5060263;28;20205;-61
2023/06/25 01:38:06;;;;;;;15.03;11.80;;;19.80;99.90;;;;;;5056279;28;20216;-62
2023/06/25 01:40:31;;;;;;;12.93;11.33;;;19.80;99.90;;;;;;5057961;28;20225;-61
2023/06/25 01:42:57;;;;;;;13.03;10.50;;;19.90;99.90;;;;;;5058440;28;20289;-61
2023/06/25 01:45:22;;;;;;;12.73;10.10;;;19.90;99.90;;;;;;5058637;28;20209;-61
2023/06/25 01:47:48;;;;;;;12.27;9.90;;;19.90;99.90;;;;;;5058768;28;20217;-61
2023/06/25 01:50:14;;;;;;;9.33;8.43;;;19.90;99.90;;;;;;5059078;28;20197;-61
2023/06/25 01:52:39;;;;;;;11.20;9.07;;;19.90;99.90;;;;;;5055720;28;20204;-61
2023/06/25 01:55:05;;;;;;;9.93;8.67;;;19.90;99.90;;;;;;5058103;28;20296;-61
2023/06/25 01:57:31;;;;;;;9.97;8.30;;;19.90;99.90;;;;;;5058434;28;20200;-62
2023/06/25 01:59:56;;;;;;;9.53;8.63;;;19.90;99.90;;;;;;5058868;28;20546;-64
2023/06/25 02:02:22;;;;;;;10.43;9.40;;;19.80;99.90;;;;;;5058846;28;20197;-72
2023/06/25 02:04:47;;;;;;;10.00;8.47;;;19.70;99.90;;;;;;5056625;28;20205;-77
2023/06/25 02:07:13;;;;;;;9.83;8.93;;;19.70;99.90;;;;;;5058800;28;20202;-77
2023/06/25 02:09:39;;;;;;;9.77;8.77;;;19.80;99.90;;;;;;5057037;28;20599;-70
2023/06/25 02:12:04;;;;;;;9.53;8.10;;;19.80;99.90;;;;;;5058790;28;20452;-76
2023/06/25 02:14:32;;;;;;;9.17;8.33;;;19.70;99.90;;;;;;5058685;28;20209;-75
2023/06/25 02:16:57;;;;;;;9.70;8.73;;;19.80;99.90;;;;;;5056439;28;20217;-75
2023/06/25 02:19:23;;;;;;;9.47;8.57;;;19.90;99.90;;;;;;5058217;28;20208;-75
2023/06/25 02:21:48;;;;;;;10.70;9.70;;;19.90;99.90;;;;;;5058066;28;20201;-74
2023/06/25 02:24:13;;;;;;;10.70;9.60;;;19.90;99.90;;;;;;5058235;28;20197;-74
2023/06/25 02:26:40;;;;;;;10.83;8.30;;;20.00;99.90;;;;;;5058103;28;20217;-75
2023/06/25 02:29:05;;;;;;;11.20;8.87;;;20.00;99.90;;;;;;5057987;28;20210;-75
2023/06/25 02:31:31;;;;;;;9.60;8.63;;;20.00;99.90;;;;;;5052980;28;20206;-75
2023/06/25 02:33:56;;;;;;;10.23;8.60;;;19.90;99.90;;;;;;5052447;28;20224;-75
2023/06/25 02:36:22;;;;;;;11.50;9.43;;;20.00;99.90;;;;;;5058736;28;20561;-75
2023/06/25 02:38:47;;;;;;;9.70;8.80;;;20.00;99.90;;;;;;5057406;28;21003;-75
2023/06/25 02:41:13;;;;;;;11.70;9.00;;;20.00;99.90;;;;;;5058930;28;20217;-75
2023/06/25 02:43:38;;;;;;;9.70;8.80;;;20.10;99.90;;;;;;5055938;28;20194;-75
2023/06/25 02:46:03;;;;;;;10.93;9.13;;;20.00;99.90;;;;;;5057563;28;20204;-75
2023/06/25 02:48:29;;;;;;;9.67;8.50;;;20.00;99.90;;;;;;5058209;28;20740;-76
2023/06/25 02:50:54;;;;;;;9.40;8.47;;;20.00;99.90;;;;;;5056997;28;20329;-75
2023/06/25 02:53:20;;;;;;;9.87;8.70;;;20.00;99.90;;;;;;5057501;28;20189;-75
2023/06/25 02:55:45;;;;;;;10.00;8.97;;;20.00;99.90;;;;;;5057440;28;20205;-76
2023/06/25 02:58:13;;;;;;;10.70;9.30;;;19.90;99.90;;;;;;5056169;28;20766;-75
2023/06/25 03:00:39;;;;;;;11.13;10.13;;;19.80;99.90;;;;;;5057600;28;20292;-76
2023/06/25 03:03:04;;;;;;;11.57;10.37;;;19.70;99.90;;;;;;5057260;28;20292;-75
2023/06/25 03:05:30;;;;;;;13.90;10.77;;;19.60;99.90;;;;;;5056825;28;20198;-75
2023/06/25 03:07:57;;;;;;;12.20;11.00;;;19.70;99.90;;;;;;5059129;28;20631;-75
2023/06/25 03:10:25;;;;;;;13.00;11.70;;;19.80;99.90;;;;;;5050714;28;20233;-75
2023/06/25 03:12:53;;;;;;;12.67;11.47;;;19.90;99.90;;;;;;5056347;28;20186;-75
2023/06/25 03:15:19;;;;;;;13.63;11.90;;;19.90;99.90;;;;;;5057394;28;20182;-75
2023/06/25 03:17:45;;;;;;;12.20;10.90;;;19.90;99.90;;;;;;5056953;28;21081;-75
2023/06/25 03:20:11;;;;;;;11.97;10.77;;;19.90;99.90;;;;;;5053902;28;20198;-76
2023/06/25 03:22:36;;;;;;;10.57;9.43;;;19.80;99.90;;;;;;5057474;28;20190;-76
2023/06/25 03:25:03;;;;;;;11.97;10.77;;;19.70;99.90;;;;;;5056647;28;21049;-76
2023/06/25 03:27:31;;;;;;;11.53;10.43;;;19.80;99.90;;;;;;5056962;28;20572;-76
2023/06/25 03:29:56;;;;;;;12.23;10.93;;;19.90;99.90;;;;;;5056292;28;20559;-76
2023/06/25 03:32:22;;;;;;;11.73;10.53;;;19.90;99.90;;;;;;5055167;28;20208;-75
2023/06/25 03:34:47;;;;;;;12.47;11.17;;;20.00;99.90;;;;;;5056776;28;20201;-76
2023/06/25 03:37:13;;;;;;;12.40;10.13;;;19.90;99.90;;;;;;5057331;28;20532;-76
2023/06/25 03:39:38;;;;;;;11.03;10.03;;;19.90;99.90;;;;;;5055724;28;20706;-75
2023/06/25 03:42:04;;;;;;;10.47;9.30;;;19.90;99.90;;;;;;5057725;28;20287;-75
2023/06/25 03:44:29;;;;;;;11.23;10.13;;;20.00;99.90;;;;;;5054856;28;20221;-75
2023/06/25 03:46:55;;;;;;;13.10;10.57;;;20.00;99.90;;;;;;5057062;28;20259;-75
2023/06/25 03:49:20;;;;;;;13.93;10.20;;;20.00;99.90;;;;;;5056161;28;20206;-75
2023/06/25 03:51:46;;;;;;;10.57;9.57;;;20.10;99.90;;;;;;5056978;28;20192;-76
2023/06/25 03:54:11;;;;;;;12.37;9.83;;;20.00;99.90;;;;;;5056917;28;20196;-75
2023/06/25 03:56:37;;;;;;;9.93;8.93;;;20.10;99.90;;;;;;5056803;28;20197;-75
2023/06/25 03:59:02;;;;;;;10.43;9.43;;;20.10;99.90;;;;;;5056483;28;20209;-75
2023/06/25 04:01:28;;;;;;;12.57;10.33;;;20.10;99.90;;;;;;5054994;28;20679;-75
2023/06/25 04:03:54;;;;;;;10.77;9.60;;;20.10;99.90;;;;;;5056443;28;20207;-75
2023/06/25 04:06:19;;;;;;;10.27;9.30;;;20.00;99.90;;;;;;5056229;28;20350;-75
2023/06/25 04:08:45;;;;;;;11.83;9.93;;;20.10;99.90;;;;;;5056842;28;20710;-73
2023/06/25 04:11:10;;;;;;;11.20;9.27;;;20.10;99.90;;;;;;5056774;28;20211;-74
2023/06/25 04:13:36;;;;;;;12.23;10.23;;;20.20;99.90;;;;;;5054852;28;20206;-73
2023/06/25 04:16:01;;;;;;;11.53;8.77;;;20.20;99.90;;;;;;5056269;28;20201;-73
2023/06/25 04:18:27;;;;;;;9.93;8.93;;;20.30;99.90;;;;;;5056727;28;20213;-74
2023/06/25 04:20:52;;;;;;;11.53;10.23;;;20.30;99.90;;;;;;5056252;28;20198;-74
2023/06/25 04:23:17;;;;;;;9.67;8.50;;;20.40;99.90;;;;;;5054184;28;20228;-74
2023/06/25 04:25:43;;;;;;;12.90;10.10;;;20.40;99.90;;;;;;5057011;28;20292;-74
2023/06/25 04:28:15;;;;;;;11.77;10.17;;;20.50;99.90;;;;;;5056586;28;20219;-74
2023/06/25 04:30:41;;;;;;;12.27;9.30;;;20.50;99.90;;;;;;5054168;28;20205;-73
2023/06/25 04:33:07;;;;;;;9.90;8.90;;;20.50;99.90;;;;;;5053567;28;20239;-76
2023/06/25 04:35:33;;;;;;;9.70;8.70;;;20.50;99.90;;;;;;5056317;28;20292;-72
2023/06/25 04:37:59;;;;;;;9.23;8.43;;;20.50;99.90;;;;;;5054698;28;20849;-72
2023/06/25 04:40:24;;;;;;;11.93;8.53;;;20.50;99.90;;;;;;5058116;28;20737;-77
2023/06/25 04:42:50;;;;;;;12.03;9.13;;;20.60;99.90;;;;;;5067139;28;20243;-72
2023/06/25 04:45:16;;;;;;;10.67;9.77;;;20.60;99.90;;;;;;5071691;28;20200;-74
2023/06/25 04:47:41;;;;;;;9.87;8.90;;;20.70;99.90;;;;;;5058345;28;20303;-75
2023/06/25 04:50:07;;;;;;;8.67;7.87;;;20.80;99.90;;;;;;5055311;28;20544;-74
2023/06/25 04:52:32;;;;;;;9.03;8.10;;;20.90;99.90;;;;;;5059923;28;20201;-75
2023/06/25 04:54:58;;;;;;;7.17;6.47;;;20.90;99.90;;;;;;5059662;28;20186;-74
2023/06/25 04:57:23;;;;;;;7.60;6.90;;;20.90;99.90;;;;;;5060672;28;20314;-74
2023/06/25 04:59:49;;;;;;;7.60;6.73;;;20.90;99.90;;;;;;5059112;28;20766;-74
2023/06/25 05:02:14;;;;;;;7.10;6.50;;;20.90;99.90;;;;;;5058015;28;20202;-75
2023/06/25 05:04:40;;;;;;;11.30;6.47;;;20.90;99.90;;;;;;5058291;28;20281;-75
2023/06/25 05:07:05;;;;;;;7.13;6.50;;;21.00;99.90;;;;;;5059420;28;20278;-75
2023/06/25 05:09:31;;;;;;;6.53;6.03;;;21.00;99.90;;;;;;5061833;28;20222;-75
2023/06/25 05:11:59;;;;;;;7.43;6.77;;;20.80;99.90;;;;;;5056030;28;20467;-75
2023/06/25 05:14:25;;;;;;;8.87;6.73;;;20.80;99.90;;;;;;5059311;28;20205;-75
2023/06/25 05:16:51;;;;;;;6.90;6.30;;;20.90;99.90;;;;;;5059697;28;20207;-75
2023/06/25 05:19:16;;;;;;;6.63;6.03;;;21.00;99.90;;;;;;5059707;28;20228;-75
2023/06/25 05:21:42;;;;;;;7.27;5.90;;;21.00;99.90;;;;;;5059325;28;20296;-75
2023/06/25 05:24:11;;;;;;;8.60;7.30;;;21.10;99.90;;;;;;5059560;28;20210;-75
2023/06/25 05:26:36;;;;;;;9.30;6.63;;;21.10;99.90;;;;;;5059441;28;20421;-75
2023/06/25 05:29:02;;;;;;;10.07;6.53;;;21.10;99.90;;;;;;5059282;28;20561;-74
2023/06/25 05:31:28;;;;;;;7.17;6.20;;;21.20;99.90;;;;;;5059688;28;20660;-76
2023/06/25 05:33:54;;;;;;;6.70;6.07;;;21.30;99.90;;;;;;5057697;28;20539;-75
2023/06/25 05:36:20;;;;;;;7.23;6.43;;;21.40;99.90;;;;;;5059379;28;20202;-75
2023/06/25 05:38:46;;;;;;;9.83;7.40;;;21.40;99.90;;;;;;5057053;28;20209;-75
2023/06/25 05:41:12;;;;;;;8.27;6.50;;;21.50;99.90;;;;;;5060139;28;20216;-75
2023/06/25 05:43:37;;;;;;;7.60;6.80;;;21.60;99.90;;;;;;5054938;28;20565;-74
2023/06/25 05:46:03;;;;;;;7.53;6.83;;;21.60;99.90;;;;;;5058733;28;20342;-75
2023/06/25 05:48:28;;;;;;;8.00;6.47;;;21.60;99.90;;;;;;5057106;28;20221;-75
2023/06/25 05:50:54;;;;;;;7.13;6.40;;;21.60;99.90;;;;;;5058709;28;20224;-75
2023/06/25 05:53:23;;;;;;;7.73;5.70;;;21.70;99.90;;;;;;5058131;28;20202;-74
2023/06/25 05:55:48;;;;;;;6.97;6.30;;;21.60;99.90;;;;;;5058686;28;20262;-75
2023/06/25 05:58:14;;;;;;;7.20;6.60;;;21.60;99.90;;;;;;5058436;28;20221;-75
2023/06/25 06:00:39;;;;;;;6.73;6.13;;;21.70;99.90;;;;;;5061576;28;20596;-75
2023/06/25 06:03:05;;;;;;;8.57;6.43;;;21.80;99.90;;;;;;5053396;28;20395;-75
2023/06/25 06:05:30;;;;;;;6.40;5.80;;;21.80;99.90;;;;;;5058537;28;20672;-75
2023/06/25 06:07:56;;;;;;;7.10;6.23;;;21.80;99.90;;;;;;5057280;28;20222;-75
2023/06/25 06:10:21;;;;;;;8.67;7.13;;;21.90;99.90;;;;;;5059343;28;20198;-74
2023/06/25 06:12:47;;;;;;;6.80;6.20;;;21.90;99.90;;;;;;5055873;28;20209;-74
2023/06/25 06:15:12;;;;;;;7.20;6.50;;;21.90;99.90;;;;;;5058311;28;20203;-75
2023/06/25 06:17:38;;;;;;;8.00;6.97;;;21.90;99.90;;;;;;5057972;28;20661;-75
2023/06/25 06:20:04;;;;;;;6.67;5.97;;;22.00;99.90;;;;;;5053354;28;20205;-75
2023/06/25 06:22:33;;;;;;;8.10;7.30;;;22.00;99.90;;;;;;5058483;28;20539;-72
2023/06/25 06:24:58;;;;;;;8.43;7.37;;;22.00;99.90;;;;;;5056196;28;20513;-72
2023/06/25 06:27:24;;;;;;;7.63;6.83;;;22.00;99.90;;;;;;5057911;28;20216;-72
2023/06/25 06:29:49;;;;;;;7.83;7.03;;;22.10;99.90;;;;;;5056031;28;20212;-75
2023/06/25 06:32:15;;;;;;;8.13;7.30;;;22.20;99.90;;;;;;5058001;28;20193;-75
2023/06/25 06:34:41;;;;;;;8.63;6.83;;;22.20;99.90;;;;;;5057556;28;20209;-75
2023/06/25 06:37:07;;;;;;;7.43;6.43;;;22.10;99.90;;;;;;5055779;28;20590;-74
2023/06/25 06:39:33;;;;;;;9.17;7.30;;;22.20;99.90;;;;;;5050488;28;20712;-75
2023/06/25 06:41:59;;;;;;;8.37;6.20;;;22.30;99.90;;;;;;5055815;28;20205;-75
2023/06/25 06:44:25;;;;;;;7.67;7.00;;;22.20;99.90;;;;;;5057993;28;20201;-75
2023/06/25 06:46:51;;;;;;;6.73;5.90;;;22.30;99.90;;;;;;5057849;28;20740;-75
2023/06/25 06:49:17;;;;;;;7.43;6.83;;;22.30;99.90;;;;;;5055600;28;20232;-75
2023/06/25 06:51:43;;;;;;;7.13;6.43;;;22.40;99.90;;;;;;5057320;28;20287;-75
2023/06/25 06:54:08;;;;;;;7.87;7.07;;;22.60;99.90;;;;;;5057587;28;20671;-75
2023/06/25 06:56:34;;;;;;;6.72;6.10;;;22.70;99.90;;;;;;5057483;28;20202;-75
2023/06/25 06:59:00;;;;;;;7.23;6.57;;;22.70;99.90;;;;;;5057702;28;20201;-75
2023/06/25 07:01:26;;;;;;;6.77;6.17;;;22.70;99.90;;;;;;5055847;28;20206;-75
2023/06/25 07:03:51;;;;;;;6.43;5.93;;;22.90;99.90;;;;;;5057645;28;20229;-75
2023/06/25 07:06:17;;;;;;;7.30;6.70;;;22.90;99.90;;;;;;5057023;28;20780;-75
2023/06/25 07:08:42;;;;;;;8.67;7.13;;;23.00;99.90;;;;;;5057338;28;20668;-73
2023/06/25 07:11:08;;;;;;;7.10;6.37;;;23.10;99.90;;;;;;5057524;28;20198;-72
2023/06/25 07:13:33;;;;;;;7.60;6.90;;;23.20;99.90;;;;;;5057487;28;20517;-72
2023/06/25 07:15:59;;;;;;;8.20;6.85;;;23.20;99.90;;;;;;5059295;28;20197;-74
2023/06/25 07:18:24;;;;;;;7.20;6.50;;;23.10;99.90;;;;;;5052913;28;20209;-72
2023/06/25 07:20:50;;;;;;;7.03;6.43;;;23.20;99.90;;;;;;5058287;28;20231;-73
2023/06/25 07:23:16;;;;;;;7.93;7.13;;;23.20;99.90;;;;;;5056824;28;20251;-73
2023/06/25 07:25:42;;;;;;;6.33;5.57;;;23.10;99.90;;;;;;5055844;28;20202;-72
2023/06/25 07:28:09;;;;;;;7.63;6.83;;;22.90;99.90;;;;;;5055617;28;20267;-73
2023/06/25 07:30:34;;;;;;;7.30;6.60;;;23.10;99.90;;;;;;5056683;28;20205;-72
2023/06/25 07:33:00;;;;;;;6.65;6.05;;;23.20;99.90;;;;;;5058894;28;20201;-73
2023/06/25 07:35:25;;;;;;;7.90;7.20;;;23.20;99.90;;;;;;5058264;28;20236;-72
2023/06/25 07:37:51;;;;;;;7.33;6.63;;;23.30;99.90;;;;;;5055751;28;20210;-72
2023/06/25 07:40:16;;;;;;;6.53;6.00;;;23.30;99.90;;;;;;5056564;28;20245;-71
2023/06/25 07:42:42;;;;;;;8.52;7.10;;;23.20;99.90;;;;;;5056929;28;20209;-71
2023/06/25 07:45:08;;;;;;;7.30;6.60;;;23.10;99.90;;;;;;5057117;28;20205;-72
2023/06/25 07:47:35;;;;;;;7.72;6.68;;;23.20;99.90;;;;;;5057150;28;20222;-70
2023/06/25 07:50:01;;;;;;;7.23;6.63;;;23.30;99.90;;;;;;5060704;28;20197;-78
2023/06/25 07:52:26;;;;;;;7.75;6.90;;;23.20;99.90;;;;;;5059656;28;20505;-75
2023/06/25 07:54:52;;;;;;;8.27;6.70;;;23.30;99.90;;;;;;5052791;28;20201;-74
2023/06/25 07:57:18;;;;;;;8.05;6.97;;;23.30;99.90;;;;;;5048493;28;20201;-76
2023/06/25 07:59:43;;;;;;;7.82;7.07;;;23.30;99.90;;;;;;5044672;28;20251;-74
2023/06/25 08:02:09;;;;;;;7.00;6.40;;;23.50;99.90;;;;;;5046585;28;20688;-72
2023/06/25 08:04:35;;;;;;;9.30;6.47;;;23.50;99.90;;;;;;5046676;28;20205;-73
2023/06/25 08:07:01;;;;;;;10.63;6.50;;;23.60;99.90;;;;;;5046317;28;20214;-75
2023/06/25 08:09:26;;;;;;;9.38;7.07;;;23.50;99.90;;;;;;5045180;28;20210;-76
2023/06/25 08:11:52;;;;;;;7.97;6.68;;;23.50;99.90;;;;;;5054579;28;20202;-75
2023/06/25 08:14:17;;;;;;;7.30;6.70;;;23.60;99.90;;;;;;5046350;28;20657;-73
2023/06/25 08:16:43;;;;;;;8.68;7.70;;;23.70;99.90;;;;;;5046350;28;20199;-73
2023/06/25 08:19:08;;;;;;;7.45;6.75;;;24.00;99.90;;;;;;5050698;28;20205;-72
2023/06/25 08:21:35;;;;;;;7.43;6.78;;;23.80;99.90;;;;;;5060026;28;20287;-73
2023/06/25 08:24:00;;;;;;;7.40;6.78;;;23.60;99.90;;;;;;5052624;28;22874;-75
2023/06/25 08:26:26;;;;;;;7.05;6.35;;;23.60;99.90;;;;;;5058583;28;20205;-74
2023/06/25 08:28:52;;;;;;;8.38;7.57;;;23.60;99.90;;;;;;5061387;28;20198;-81
2023/06/25 08:31:17;;;;;;;8.07;7.37;;;23.90;99.90;;;;;;5048308;28;20229;-79
2023/06/25 08:33:43;;;;;;;8.02;7.32;;;24.20;99.90;;;;;;5049304;28;20198;-74
2023/06/25 08:36:08;;;;;;;8.73;7.82;;;24.30;99.90;;;;;;5050132;28;20194;-74
2023/06/25 08:38:35;;;;;;;7.45;6.88;;;24.30;99.90;;;;;;5049676;28;20257;-74
2023/06/25 08:41:02;;;;;;;7.25;6.65;;;24.20;99.90;;;;;;5049418;28;20211;-76
2023/06/25 08:43:27;;;;;;;7.68;6.88;;;24.20;99.90;;;;;;5048647;28;20198;-78
2023/06/25 08:45:53;;;;;;;7.60;6.70;;;24.00;99.90;;;;;;5050426;28;20198;-74
2023/06/25 08:48:19;;;;;;;7.05;6.35;;;24.00;99.90;;;;;;5050180;28;20219;-71
2023/06/25 08:50:56;;;;;;;7.32;6.60;;;24.10;99.90;;;;;;5059129;28;20334;-75
2023/06/25 08:53:25;;;;;;;7.68;6.97;;;24.20;99.90;;;;;;5047989;28;20205;-73
2023/06/25 08:55:51;;;;;;;8.90;6.53;;;24.50;99.90;;;;;;5048676;28;20759;-70
2023/06/25 08:58:17;;;;;;;7.40;6.78;;;24.60;99.90;;;;;;5049623;28;20194;-71
2023/06/25 09:00:42;;;;;;;6.63;6.07;;;24.50;99.90;;;;;;5049338;28;20206;-70
2023/06/25 09:03:08;;;;;;;8.20;6.28;;;24.70;99.90;;;;;;5049169;28;20215;-75
2023/06/25 09:05:33;;;;;;;12.32;7.03;;;24.80;99.90;;;;;;5064177;28;20214;-72
2023/06/25 09:07:59;;;;;;;7.13;6.45;;;25.00;99.90;;;;;;5062278;28;20676;-69
2023/06/25 09:10:26;;;;;;;7.35;6.75;;;25.00;99.90;;;;;;5065563;28;20203;-73
2023/06/25 09:12:52;;;;;;;8.15;7.35;;;24.90;99.90;;;;;;5064982;28;20276;-76
2023/06/25 09:15:21;;;;;;;7.93;7.10;;;24.80;99.90;;;;;;5067262;28;20328;-73
2023/06/25 09:17:47;;;;;;;7.10;6.43;;;25.20;99.90;;;;;;5065010;28;20208;-74
2023/06/25 09:20:13;;;;;;;7.95;7.20;;;25.30;99.90;;;;;;5061347;28;20206;-74
2023/06/25 09:22:49;;;;;;;8.13;7.32;;;25.10;99.90;;;;;;5062201;28;20221;-73
2023/06/25 09:25:15;;;;;;;7.55;6.40;;;24.80;99.90;;;;;;5066661;28;20238;-74
2023/06/25 09:27:40;;;;;;;6.90;6.28;;;24.50;99.90;;;;;;5063684;28;20252;-73
2023/06/25 09:30:10;;;;;;;8.48;7.65;;;24.80;99.90;;;;;;5065378;28;20308;-77
2023/06/25 09:32:35;;;;;;;7.50;6.80;;;25.10;99.90;;;;;;5065866;28;20245;-76
2023/06/25 09:35:03;;;;;;;7.93;6.80;;;25.40;99.90;;;;;;5066540;28;20203;-76
2023/06/25 09:37:28;;;;;;;7.13;6.53;;;25.40;99.90;;;;;;5066942;28;20346;-76
2023/06/25 09:39:54;;;;;;;7.40;6.60;;;25.20;99.90;;;;;;5066752;28;20775;-73
2023/06/25 09:42:20;;;;;;;7.10;6.55;;;25.30;99.90;;;;;;5067349;28;20206;-74
2023/06/25 09:44:50;;;;;;;11.23;6.50;;;25.30;99.90;;;;;;5066206;28;20239;-73
2023/06/25 09:47:17;;;;;;;7.00;6.40;;;25.30;99.90;;;;;;5067869;28;20244;-73
2023/06/25 09:49:43;;;;;;;6.90;5.68;;;25.20;99.90;;;;;;5066760;28;20617;-71
2023/06/25 09:52:14;;;;;;;5.85;5.38;;;25.10;99.90;;;;;;5065447;28;20290;-73
2023/06/25 09:54:41;;;;;;;8.82;5.90;;;25.20;99.90;;;;;;5068210;28;20585;-74
2023/06/25 09:57:10;;;;;;;5.53;5.13;;;25.40;99.90;;;;;;5065960;28;20207;-75
2023/06/25 09:59:36;;;;;;;6.18;5.65;;;25.60;99.90;;;;;;5067919;28;20209;-75
2023/06/25 10:02:05;;;;;;;5.82;5.32;;;25.70;99.40;;;;;;5068313;28;20619;-74
2023/06/25 10:04:32;;;;;;;6.03;5.53;;;25.50;99.90;;;;;;5054840;28;20205;-73
2023/06/25 10:06:58;;;;;;;6.60;6.10;;;25.70;99.90;;;;;;5058431;28;20218;-75
2023/06/25 10:09:23;;;;;;;6.80;5.55;;;25.50;99.40;;;;;;5058124;28;20217;-76
2023/06/25 10:11:54;;;;;;;8.65;6.47;;;25.40;99.90;;;;;;5056300;28;20199;-72
2023/06/25 10:14:21;;;;;;;5.88;5.28;;;25.60;99.90;;;;;;5057948;28;20448;-78
2023/06/25 10:16:54;;;;;;;5.50;4.97;;;25.60;99.90;;;;;;5057958;28;20288;-75
2023/06/25 10:19:21;;;;;;;5.90;5.22;;;25.70;99.50;;;;;;5059469;28;20216;-75
2023/06/25 10:21:58;;;;;;;6.00;5.43;;;25.80;99.10;;;;;;5063948;28;20201;-73
2023/06/25 10:24:23;;;;;;;8.77;6.30;;;25.70;99.90;;;;;;5066899;28;20266;-73
2023/06/25 10:26:53;;;;;;;7.20;5.40;;;25.60;99.60;;;;;;5055805;28;20348;-80
2023/06/25 10:29:19;;;;;;;6.13;5.63;;;25.50;99.40;;;;;;5052035;28;20199;-73
2023/06/25 10:31:46;;;;;;;15.02;11.48;;;25.50;99.20;;;;;;5060949;28;20658;-73
2023/06/25 10:34:13;;;;;;;8.98;8.15;;;25.70;99.60;;;;;;5056479;28;20300;-72
2023/06/25 10:36:49;;;;;;;9.10;6.97;;;25.70;99.70;;;;;;5056072;28;20196;-71
2023/06/25 10:39:15;;;;;;;7.07;6.30;;;25.80;99.80;;;;;;5053963;28;20254;-74
2023/06/25 10:41:47;;;;;;;7.13;6.53;;;25.80;99.90;;;;;;5055815;28;20742;-74
2023/06/25 10:44:12;;;;;;;6.72;6.00;;;25.70;98.80;;;;;;5058201;28;20613;-73
2023/06/25 10:46:37;;;;;;;5.90;5.40;;;25.50;98.90;;;;;;5056447;28;20197;-73
2023/06/25 10:49:03;;;;;;;6.72;6.13;;;25.50;99.90;;;;;;5056153;28;20227;-72
2023/06/25 10:51:29;;;;;;;32.40;15.55;;;25.50;99.50;;;;;;5058290;28;20692;-76
2023/06/25 10:53:55;;;;;;;16.15;9.18;;;24.90;99.90;;;;;;5053970;28;20203;-80
2023/06/25 10:56:22;;;;;;;7.07;6.30;;;23.20;99.90;;;;;;5049299;28;20199;-69
2023/06/25 10:58:54;;;;;;;7.40;6.80;;;22.50;99.90;;;;;;5062230;28;20271;-72
2023/06/25 11:01:20;;;;;;;6.78;6.15;;;22.20;99.90;;;;;;5059554;28;20221;-73
2023/06/25 11:03:45;;;;;;;8.38;7.35;;;22.10;99.90;;;;;;5057370;28;20221;-72
2023/06/25 11:06:11;;;;;;;7.15;6.55;;;22.40;99.90;;;;;;5063021;28;20666;-73
2023/06/25 11:08:36;;;;;;;8.30;7.50;;;21.90;99.90;;;;;;5055170;28;20220;-75
2023/06/25 11:11:03;;;;;;;7.53;6.80;;;21.80;99.90;;;;;;5047127;28;20195;-74
2023/06/25 11:13:31;;;;;;;6.93;6.23;;;21.70;99.90;;;;;;5047386;28;20190;-71
2023/06/25 11:15:57;;;;;;;9.50;8.60;;;21.60;99.90;;;;;;5048016;28;20199;-76
2023/06/25 11:18:23;;;;;;;8.03;7.30;;;21.90;99.90;;;;;;5049749;28;20217;-77
2023/06/25 11:20:49;;;;;;;7.67;7.00;;;22.00;99.90;;;;;;5050942;28;20206;-72
2023/06/25 11:23:15;;;;;;;8.07;7.37;;;22.10;99.90;;;;;;5060076;28;20366;-74
2023/06/25 11:25:40;;;;;;;7.82;7.10;;;21.70;99.90;;;;;;5064006;28;20668;-75
2023/06/25 11:28:12;;;;;;;8.55;6.68;;;21.80;99.90;;;;;;5068081;28;20226;-75
2023/06/25 11:30:38;;;;;;;7.63;6.23;;;21.40;99.90;;;;;;5065029;28;20200;-77
2023/06/25 11:33:11;;;;;;;7.15;6.25;;;21.80;99.90;;;;;;5054666;28;20669;-73
2023/06/25 11:35:38;;;;;;;6.20;5.70;;;22.20;99.90;;;;;;5057092;28;20293;-76
2023/06/25 11:38:04;;;;;;;7.97;5.53;;;22.40;99.90;;;;;;5057040;28;20225;-76
2023/06/25 11:40:31;;;;;;;6.97;6.27;;;22.30;99.90;;;;;;5057669;28;20218;-76
2023/06/25 11:42:57;;;;;;;6.55;5.95;;;22.10;99.90;;;;;;5057485;28;20214;-77
2023/06/25 11:45:23;;;;;;;6.90;6.10;;;22.60;99.90;;;;;;5057233;28;20296;-77
2023/06/25 11:47:53;;;;;;;6.25;5.60;;;23.30;99.90;;;;;;5057094;28;20305;-77
2023/06/25 11:50:21;;;;;;;8.52;6.50;;;24.10;99.90;;;;;;5056724;28;20246;-77
2023/06/25 11:52:47;;;;;;;6.00;5.50;;;24.00;99.90;;;;;;5047194;28;20209;-77
2023/06/25 11:55:12;;;;;;;5.75;5.25;;;23.90;99.90;;;;;;5057025;28;20655;-76
2023/06/25 11:57:39;;;;;;;7.03;6.38;;;23.90;99.90;;;;;;5059700;28;21104;-76
2023/06/25 12:00:05;;;;;;;5.82;5.32;;;24.40;99.90;;;;;;5060848;28;20332;-77
2023/06/25 12:02:31;;;;;;;6.70;5.53;;;24.20;99.90;;;;;;5051702;28;20211;-79
2023/06/25 12:04:56;;;;;;;6.47;5.93;;;25.30;99.90;;;;;;5056522;28;20198;-76
2023/06/25 12:07:22;;;;;;;6.38;5.78;;;24.80;99.90;;;;;;5044881;28;20214;-75
2023/06/25 12:09:47;;;;;;;8.27;7.45;;;24.70;99.90;;;;;;5047507;28;20197;-77
2023/06/25 12:12:13;;;;;;;9.05;6.20;;;24.70;99.90;;;;;;5047789;28;20206;-77
2023/06/25 12:14:38;;;;;;;6.85;5.25;;;24.60;99.90;;;;;;5047390;28;20244;-78
2023/06/25 12:17:04;;;;;;;9.23;4.85;;;24.60;99.90;;;;;;5049188;28;20249;-76
2023/06/25 12:19:30;;;;;;;5.65;5.15;;;24.70;99.90;;;;;;5054043;28;20570;-77
2023/06/25 12:21:56;;;;;;;6.57;5.95;;;24.70;99.90;;;;;;5046273;28;20870;-77
2023/06/25 12:24:23;;;;;;;5.72;5.10;;;24.80;99.90;;;;;;5047022;28;20233;-78
2023/06/25 12:26:48;;;;;;;6.43;5.93;;;24.80;99.90;;;;;;5046464;28;20219;-78
2023/06/25 12:29:14;;;;;;;7.28;5.47;;;24.80;99.90;;;;;;5046317;28;20199;-78
2023/06/25 12:31:40;;;;;;;7.53;6.20;;;24.90;99.90;;;;;;5046063;28;20572;-73
2023/06/25 12:34:05;;;;;;;6.40;5.05;;;25.00;99.90;;;;;;5045682;28;20295;-73